Time;durP1;ratioP1;P1;durP2;ratioP2;P2;SDS_P1;SDS_P2;PMS_P1;PMS_P2;Temp;Humidity;BMP_temperature;BMP_pressure;BME280_temperature;BME280_humidity;BME280_pressure;Samples;Min_cycle;Max_cycle;Signal;HPM_P1;HPM_P2
2022/02/18 00:00:00;;;;;;;15.8;3.15;;;;;;;6.32;88.58789;95076.78;;;;
2022/02/18 00:01:01;;;;;;;15.8;3.15;;;;;;;6.32;88.58789;95076.78;;;;
2022/02/18 00:02:04;;;;;;;15.8;3.15;;;;;;;6.32;88.58789;95076.78;;;;
2022/02/18 00:03:05;;;;;;;15.8;3.15;;;;;;;6.32;88.58789;95076.78;;;;
2022/02/18 00:04:05;;;;;;;16.4;3.6;;;;;;;6.36;88.66113;95080.69;;;;
2022/02/18 00:05:06;;;;;;;16.4;3.6;;;;;;;6.36;88.66113;95080.69;;;;
2022/02/18 00:06:07;;;;;;;16.4;3.6;;;;;;;6.36;88.66113;95080.69;;;;
2022/02/18 00:07:08;;;;;;;16.4;3.6;;;;;;;6.36;88.66113;95080.69;;;;
2022/02/18 00:08:08;;;;;;;16.4;3.6;;;;;;;6.36;88.66113;95080.69;;;;
2022/02/18 00:09:10;;;;;;;16.4;3.6;;;;;;;6.36;88.66113;95080.69;;;;
2022/02/18 00:10:10;;;;;;;16.4;3.6;;;;;;;6.36;88.66113;95080.69;;;;
2022/02/18 00:11:11;;;;;;;16.4;3.6;;;;;;;6.36;88.66113;95080.69;;;;
2022/02/18 00:12:12;;;;;;;16.4;3.6;;;;;;;6.36;88.66113;95080.69;;;;
2022/02/18 00:13:13;;;;;;;16.4;3.6;;;;;;;6.36;88.66113;95080.69;;;;
2022/02/18 00:14:13;;;;;;;11.3;2.8;;;;;;;6.24;88.87891;95074.75;;;;
2022/02/18 00:15:14;;;;;;;11.3;2.8;;;;;;;6.24;88.87891;95074.75;;;;
2022/02/18 00:16:14;;;;;;;11.3;2.8;;;;;;;6.24;88.87891;95074.75;;;;
2022/02/18 00:17:15;;;;;;;11.3;2.8;;;;;;;6.24;88.87891;95074.75;;;;
2022/02/18 00:18:16;;;;;;;11.3;2.8;;;;;;;6.24;88.87891;95074.75;;;;
2022/02/18 00:19:16;;;;;;;11.3;2.8;;;;;;;6.24;88.87891;95074.75;;;;
2022/02/18 00:20:16;;;;;;;11.3;2.8;;;;;;;6.24;88.87891;95074.75;;;;
2022/02/18 00:21:17;;;;;;;11.3;2.8;;;;;;;6.24;88.87891;95074.75;;;;
2022/02/18 00:22:18;;;;;;;11.3;2.8;;;;;;;6.24;88.87891;95074.75;;;;
2022/02/18 00:23:18;;;;;;;11.3;2.8;;;;;;;6.24;88.87891;95074.75;;;;
2022/02/18 00:24:19;;;;;;;11.3;2.8;;;;;;;6.24;88.87891;95074.75;;;;
2022/02/18 00:25:20;;;;;;;10.8;3.2;;;;;;;6.16;89.33594;95045.12;;;;
2022/02/18 00:26:20;;;;;;;10.8;3.2;;;;;;;6.16;89.33594;95045.12;;;;
2022/02/18 00:27:21;;;;;;;10.8;3.2;;;;;;;6.16;89.33594;95045.12;;;;
2022/02/18 00:28:22;;;;;;;10.8;3.2;;;;;;;6.16;89.33594;95045.12;;;;
2022/02/18 00:29:23;;;;;;;10.8;3.2;;;;;;;6.16;89.33594;95045.12;;;;
2022/02/18 00:30:24;;;;;;;10.8;3.2;;;;;;;6.16;89.33594;95045.12;;;;
2022/02/18 00:31:25;;;;;;;10.8;3.2;;;;;;;6.16;89.33594;95045.12;;;;
2022/02/18 00:32:26;;;;;;;10.8;3.2;;;;;;;6.16;89.33594;95045.12;;;;
2022/02/18 00:33:26;;;;;;;10.8;3.2;;;;;;;6.16;89.33594;95045.12;;;;
2022/02/18 00:34:27;;;;;;;10.8;3.2;;;;;;;6.16;89.33594;95045.12;;;;
2022/02/18 00:35:27;;;;;;;10.8;3.2;;;;;;;6.16;89.33594;95045.12;;;;
2022/02/18 00:36:28;;;;;;;10.8;3.2;;;;;;;6.16;89.33594;95045.12;;;;
2022/02/18 00:37:29;;;;;;;10.8;3.2;;;;;;;6.16;89.33594;95045.12;;;;
2022/02/18 00:38:29;;;;;;;10.8;3.2;;;;;;;6.16;89.33594;95045.12;;;;
2022/02/18 00:39:30;;;;;;;10.8;3.2;;;;;;;6.16;89.33594;95045.12;;;;
2022/02/18 00:40:31;;;;;;;10.8;3.2;;;;;;;6.16;89.33594;95045.12;;;;
2022/02/18 00:41:32;;;;;;;10.8;3.2;;;;;;;6.16;89.33594;95045.12;;;;
2022/02/18 00:42:33;;;;;;;10.8;3.2;;;;;;;6.16;89.33594;95045.12;;;;
2022/02/18 00:43:33;;;;;;;10.8;3.2;;;;;;;6.16;89.33594;95045.12;;;;
2022/02/18 00:44:34;;;;;;;10.8;3.2;;;;;;;6.16;89.33594;95045.12;;;;
2022/02/18 00:45:35;;;;;;;10.8;3.2;;;;;;;6.16;89.33594;95045.12;;;;
2022/02/18 00:46:35;;;;;;;12.7;3.15;;;;;;;6.25;89.68164;95044.34;;;;
2022/02/18 00:47:36;;;;;;;12.7;3.15;;;;;;;6.25;89.68164;95044.34;;;;
2022/02/18 00:48:36;;;;;;;12.7;3.15;;;;;;;6.25;89.68164;95044.34;;;;
2022/02/18 00:49:37;;;;;;;12.7;3.15;;;;;;;6.25;89.68164;95044.34;;;;
2022/02/18 00:50:38;;;;;;;12.7;3.15;;;;;;;6.25;89.68164;95044.34;;;;
2022/02/18 00:51:38;;;;;;;12.7;3.15;;;;;;;6.25;89.68164;95044.34;;;;
2022/02/18 00:52:39;;;;;;;12.7;3.15;;;;;;;6.25;89.68164;95044.34;;;;
2022/02/18 00:53:40;;;;;;;12.7;3.15;;;;;;;6.25;89.68164;95044.34;;;;
2022/02/18 00:54:41;;;;;;;12.7;3.15;;;;;;;6.25;89.68164;95044.34;;;;
2022/02/18 00:55:42;;;;;;;12.7;3.15;;;;;;;6.25;89.68164;95044.34;;;;
2022/02/18 00:56:44;;;;;;;12.7;3.15;;;;;;;6.25;89.68164;95044.34;;;;
2022/02/18 00:57:44;;;;;;;9.400001;2.95;;;;;;;6.4;89.86914;95036.42;;;;
2022/02/18 00:58:45;;;;;;;9.400001;2.95;;;;;;;6.4;89.86914;95036.42;;;;
2022/02/18 00:59:45;;;;;;;9.400001;2.95;;;;;;;6.4;89.86914;95036.42;;;;
2022/02/18 01:00:46;;;;;;;9.400001;2.95;;;;;;;6.4;89.86914;95036.42;;;;
2022/02/18 01:01:46;;;;;;;9.400001;2.95;;;;;;;6.4;89.86914;95036.42;;;;
2022/02/18 01:02:47;;;;;;;9.400001;2.95;;;;;;;6.4;89.86914;95036.42;;;;
2022/02/18 01:03:48;;;;;;;9.400001;2.95;;;;;;;6.4;89.86914;95036.42;;;;
2022/02/18 01:04:48;;;;;;;9.400001;2.95;;;;;;;6.4;89.86914;95036.42;;;;
2022/02/18 01:05:49;;;;;;;9.400001;2.95;;;;;;;6.4;89.86914;95036.42;;;;
2022/02/18 01:06:50;;;;;;;9.400001;2.95;;;;;;;6.4;89.86914;95036.42;;;;
2022/02/18 01:07:51;;;;;;;10.45;2.8;;;;;;;6.45;89.75293;95052.67;;;;
2022/02/18 01:08:51;;;;;;;10.45;2.8;;;;;;;6.45;89.75293;95052.67;;;;
2022/02/18 01:09:53;;;;;;;10.45;2.8;;;;;;;6.45;89.75293;95052.67;;;;
2022/02/18 01:10:53;;;;;;;10.45;2.8;;;;;;;6.45;89.75293;95052.67;;;;
2022/02/18 01:11:54;;;;;;;10.45;2.8;;;;;;;6.45;89.75293;95052.67;;;;
2022/02/18 01:12:55;;;;;;;10.45;2.8;;;;;;;6.45;89.75293;95052.67;;;;
2022/02/18 01:13:55;;;;;;;10.45;2.8;;;;;;;6.45;89.75293;95052.67;;;;
2022/02/18 01:14:56;;;;;;;10.45;2.8;;;;;;;6.45;89.75293;95052.67;;;;
2022/02/18 01:15:56;;;;;;;10.45;2.8;;;;;;;6.45;89.75293;95052.67;;;;
2022/02/18 01:16:57;;;;;;;10.45;2.8;;;;;;;6.45;89.75293;95052.67;;;;
2022/02/18 01:17:57;;;;;;;10.45;2.8;;;;;;;6.45;89.75293;95052.67;;;;
2022/02/18 01:18:58;;;;;;;10.45;2.8;;;;;;;6.45;89.75293;95052.67;;;;
2022/02/18 01:19:59;;;;;;;10.45;2.8;;;;;;;6.45;89.75293;95052.67;;;;
2022/02/18 01:21:00;;;;;;;10.45;2.8;;;;;;;6.45;89.75293;95052.67;;;;
2022/02/18 01:22:01;;;;;;;10.45;2.8;;;;;;;6.45;89.75293;95052.67;;;;
2022/02/18 01:23:02;;;;;;;10.45;2.8;;;;;;;6.45;89.75293;95052.67;;;;
2022/02/18 01:24:05;;;;;;;10.45;2.8;;;;;;;6.45;89.75293;95052.67;;;;
2022/02/18 01:25:06;;;;;;;10.45;2.8;;;;;;;6.45;89.75293;95052.67;;;;
2022/02/18 01:26:08;;;;;;;10.45;2.8;;;;;;;6.45;89.75293;95052.67;;;;
2022/02/18 01:27:09;;;;;;;10.45;2.8;;;;;;;6.45;89.75293;95052.67;;;;
2022/02/18 01:28:09;;;;;;;10.45;2.8;;;;;;;6.45;89.75293;95052.67;;;;
2022/02/18 01:29:10;;;;;;;13.7;3.2;;;;;;;6.33;90.35156;95048.54;;;;
2022/02/18 01:30:11;;;;;;;13.7;3.2;;;;;;;6.33;90.35156;95048.54;;;;
2022/02/18 01:31:13;;;;;;;13.7;3.2;;;;;;;6.33;90.35156;95048.54;;;;
2022/02/18 01:32:14;;;;;;;13.7;3.2;;;;;;;6.33;90.35156;95048.54;;;;
2022/02/18 01:33:14;;;;;;;13.7;3.2;;;;;;;6.33;90.35156;95048.54;;;;
2022/02/18 01:34:15;;;;;;;13.7;3.2;;;;;;;6.33;90.35156;95048.54;;;;
2022/02/18 01:35:17;;;;;;;13.7;3.2;;;;;;;6.33;90.35156;95048.54;;;;
2022/02/18 01:36:19;;;;;;;13.7;3.2;;;;;;;6.33;90.35156;95048.54;;;;
2022/02/18 01:37:20;;;;;;;13.7;3.2;;;;;;;6.33;90.35156;95048.54;;;;
2022/02/18 01:38:20;;;;;;;13.7;3.2;;;;;;;6.33;90.35156;95048.54;;;;
2022/02/18 01:39:21;;;;;;;13.7;3.2;;;;;;;6.33;90.35156;95048.54;;;;
2022/02/18 01:40:22;;;;;;;11;3.1;;;;;;;6.27;90.4873;95039.59;;;;
2022/02/18 01:41:23;;;;;;;11;3.1;;;;;;;6.27;90.4873;95039.59;;;;
2022/02/18 01:42:24;;;;;;;11;3.1;;;;;;;6.27;90.4873;95039.59;;;;
2022/02/18 01:43:24;;;;;;;11;3.1;;;;;;;6.27;90.4873;95039.59;;;;
2022/02/18 01:44:25;;;;;;;11;3.1;;;;;;;6.27;90.4873;95039.59;;;;
2022/02/18 01:45:43;;;;;;;11;3.1;;;;;;;6.27;90.4873;95039.59;;;;
2022/02/18 01:46:44;;;;;;;11;3.1;;;;;;;6.27;90.4873;95039.59;;;;
2022/02/18 01:47:44;;;;;;;11;3.1;;;;;;;6.27;90.4873;95039.59;;;;
2022/02/18 01:48:45;;;;;;;11;3.1;;;;;;;6.27;90.4873;95039.59;;;;
2022/02/18 01:49:46;;;;;;;11;3.1;;;;;;;6.27;90.4873;95039.59;;;;
2022/02/18 01:50:48;;;;;;;12.7;3.5;;;;;;;6.29;90.71484;95032.06;;;;
2022/02/18 01:51:48;;;;;;;12.7;3.5;;;;;;;6.29;90.71484;95032.06;;;;
2022/02/18 01:52:49;;;;;;;12.7;3.5;;;;;;;6.29;90.71484;95032.06;;;;
2022/02/18 01:53:53;;;;;;;12.7;3.5;;;;;;;6.29;90.71484;95032.06;;;;
2022/02/18 01:54:55;;;;;;;12.7;3.5;;;;;;;6.29;90.71484;95032.06;;;;
2022/02/18 01:55:56;;;;;;;12.7;3.5;;;;;;;6.29;90.71484;95032.06;;;;
2022/02/18 01:56:57;;;;;;;12.7;3.5;;;;;;;6.29;90.71484;95032.06;;;;
2022/02/18 01:57:57;;;;;;;12.7;3.5;;;;;;;6.29;90.71484;95032.06;;;;
2022/02/18 01:58:59;;;;;;;12.7;3.5;;;;;;;6.29;90.71484;95032.06;;;;
2022/02/18 01:59:59;;;;;;;12.7;3.5;;;;;;;6.29;90.71484;95032.06;;;;
2022/02/18 02:01:00;;;;;;;12.3;3.4;;;;;;;6.31;90.82227;95019.78;;;;
2022/02/18 02:02:01;;;;;;;12.3;3.4;;;;;;;6.31;90.82227;95019.78;;;;
2022/02/18 02:03:02;;;;;;;12.3;3.4;;;;;;;6.31;90.82227;95019.78;;;;
2022/02/18 02:04:02;;;;;;;12.3;3.4;;;;;;;6.31;90.82227;95019.78;;;;
2022/02/18 02:05:04;;;;;;;12.3;3.4;;;;;;;6.31;90.82227;95019.78;;;;
2022/02/18 02:06:06;;;;;;;12.3;3.4;;;;;;;6.31;90.82227;95019.78;;;;
2022/02/18 02:07:09;;;;;;;12.3;3.4;;;;;;;6.31;90.82227;95019.78;;;;
2022/02/18 02:08:09;;;;;;;12.3;3.4;;;;;;;6.31;90.82227;95019.78;;;;
2022/02/18 02:09:12;;;;;;;12.3;3.4;;;;;;;6.31;90.82227;95019.78;;;;
2022/02/18 02:10:13;;;;;;;12.3;3.4;;;;;;;6.31;90.82227;95019.78;;;;
2022/02/18 02:11:15;;;;;;;12.3;3.4;;;;;;;6.31;90.82227;95019.78;;;;
2022/02/18 02:12:16;;;;;;;14.3;3.1;;;;;;;6.45;90.57715;95019.06;;;;
2022/02/18 02:13:16;;;;;;;14.3;3.1;;;;;;;6.45;90.57715;95019.06;;;;
2022/02/18 02:14:29;;;;;;;14.3;3.1;;;;;;;6.45;90.57715;95019.06;;;;
2022/02/18 02:15:29;;;;;;;14.3;3.1;;;;;;;6.45;90.57715;95019.06;;;;
2022/02/18 02:16:30;;;;;;;14.3;3.1;;;;;;;6.45;90.57715;95019.06;;;;
2022/02/18 02:17:30;;;;;;;14.3;3.1;;;;;;;6.45;90.57715;95019.06;;;;
2022/02/18 02:18:31;;;;;;;14.3;3.1;;;;;;;6.45;90.57715;95019.06;;;;
2022/02/18 02:19:31;;;;;;;14.3;3.1;;;;;;;6.45;90.57715;95019.06;;;;
2022/02/18 02:20:32;;;;;;;14.3;3.1;;;;;;;6.45;90.57715;95019.06;;;;
2022/02/18 02:21:33;;;;;;;14.3;3.1;;;;;;;6.45;90.57715;95019.06;;;;
2022/02/18 02:22:33;;;;;;;11.9;3.2;;;;;;;6.67;90.28711;95001.54;;;;
2022/02/18 02:23:34;;;;;;;11.9;3.2;;;;;;;6.67;90.28711;95001.54;;;;
2022/02/18 02:24:35;;;;;;;11.9;3.2;;;;;;;6.67;90.28711;95001.54;;;;
2022/02/18 02:25:36;;;;;;;11.9;3.2;;;;;;;6.67;90.28711;95001.54;;;;
2022/02/18 02:26:37;;;;;;;11.9;3.2;;;;;;;6.67;90.28711;95001.54;;;;
2022/02/18 02:27:38;;;;;;;11.9;3.2;;;;;;;6.67;90.28711;95001.54;;;;
2022/02/18 02:28:39;;;;;;;11.9;3.2;;;;;;;6.67;90.28711;95001.54;;;;
2022/02/18 02:29:39;;;;;;;11.9;3.2;;;;;;;6.67;90.28711;95001.54;;;;
2022/02/18 02:30:40;;;;;;;11.9;3.2;;;;;;;6.67;90.28711;95001.54;;;;
2022/02/18 02:31:41;;;;;;;11.9;3.2;;;;;;;6.67;90.28711;95001.54;;;;
2022/02/18 02:32:42;;;;;;;11.9;3.2;;;;;;;6.67;90.28711;95001.54;;;;
2022/02/18 02:33:42;;;;;;;16.35;3.6;;;;;;;6.75;89.7959;95008.08;;;;
2022/02/18 02:34:43;;;;;;;16.35;3.6;;;;;;;6.75;89.7959;95008.08;;;;
2022/02/18 02:35:44;;;;;;;16.35;3.6;;;;;;;6.75;89.7959;95008.08;;;;
2022/02/18 02:36:45;;;;;;;16.35;3.6;;;;;;;6.75;89.7959;95008.08;;;;
2022/02/18 02:37:45;;;;;;;16.35;3.6;;;;;;;6.75;89.7959;95008.08;;;;
2022/02/18 02:38:47;;;;;;;16.35;3.6;;;;;;;6.75;89.7959;95008.08;;;;
2022/02/18 02:39:47;;;;;;;16.35;3.6;;;;;;;6.75;89.7959;95008.08;;;;
2022/02/18 02:40:48;;;;;;;16.35;3.6;;;;;;;6.75;89.7959;95008.08;;;;
2022/02/18 02:41:49;;;;;;;16.35;3.6;;;;;;;6.75;89.7959;95008.08;;;;
2022/02/18 02:42:50;;;;;;;16.35;3.6;;;;;;;6.75;89.7959;95008.08;;;;
2022/02/18 02:43:51;;;;;;;12.65;3;;;;;;;6.77;90.14844;94975.98;;;;
2022/02/18 02:44:52;;;;;;;12.65;3;;;;;;;6.77;90.14844;94975.98;;;;
2022/02/18 02:45:53;;;;;;;12.65;3;;;;;;;6.77;90.14844;94975.98;;;;
2022/02/18 02:46:53;;;;;;;12.65;3;;;;;;;6.77;90.14844;94975.98;;;;
2022/02/18 02:47:54;;;;;;;12.65;3;;;;;;;6.77;90.14844;94975.98;;;;
2022/02/18 02:48:54;;;;;;;12.65;3;;;;;;;6.77;90.14844;94975.98;;;;
2022/02/18 02:49:55;;;;;;;12.65;3;;;;;;;6.77;90.14844;94975.98;;;;
2022/02/18 02:50:56;;;;;;;12.65;3;;;;;;;6.77;90.14844;94975.98;;;;
2022/02/18 02:51:56;;;;;;;12.65;3;;;;;;;6.77;90.14844;94975.98;;;;
2022/02/18 02:52:57;;;;;;;12.65;3;;;;;;;6.77;90.14844;94975.98;;;;
2022/02/18 02:53:58;;;;;;;12.65;3;;;;;;;6.77;90.14844;94975.98;;;;
2022/02/18 02:54:58;;;;;;;13.35;3.1;;;;;;;6.93;90.13965;94981.72;;;;
2022/02/18 02:55:59;;;;;;;13.35;3.1;;;;;;;6.93;90.13965;94981.72;;;;
2022/02/18 02:57:00;;;;;;;13.35;3.1;;;;;;;6.93;90.13965;94981.72;;;;
2022/02/18 02:58:00;;;;;;;13.35;3.1;;;;;;;6.93;90.13965;94981.72;;;;
2022/02/18 02:59:01;;;;;;;13.35;3.1;;;;;;;6.93;90.13965;94981.72;;;;
2022/02/18 03:00:01;;;;;;;13.35;3.1;;;;;;;6.93;90.13965;94981.72;;;;
2022/02/18 03:01:03;;;;;;;13.35;3.1;;;;;;;6.93;90.13965;94981.72;;;;
2022/02/18 03:02:04;;;;;;;13.35;3.1;;;;;;;6.93;90.13965;94981.72;;;;
2022/02/18 03:03:04;;;;;;;13.35;3.1;;;;;;;6.93;90.13965;94981.72;;;;
2022/02/18 03:04:05;;;;;;;13.35;3.1;;;;;;;6.93;90.13965;94981.72;;;;
2022/02/18 03:05:06;;;;;;;12.7;2.95;;;;;;;7.09;89.69727;94987.85;;;;
2022/02/18 03:06:08;;;;;;;12.7;2.95;;;;;;;7.09;89.69727;94987.85;;;;
2022/02/18 03:07:09;;;;;;;12.7;2.95;;;;;;;7.09;89.69727;94987.85;;;;
2022/02/18 03:08:10;;;;;;;12.7;2.95;;;;;;;7.09;89.69727;94987.85;;;;
2022/02/18 03:09:10;;;;;;;12.7;2.95;;;;;;;7.09;89.69727;94987.85;;;;
2022/02/18 03:10:11;;;;;;;12.7;2.95;;;;;;;7.09;89.69727;94987.85;;;;
2022/02/18 03:11:15;;;;;;;12.7;2.95;;;;;;;7.09;89.69727;94987.85;;;;
2022/02/18 03:12:15;;;;;;;12.7;2.95;;;;;;;7.09;89.69727;94987.85;;;;
2022/02/18 03:13:16;;;;;;;12.7;2.95;;;;;;;7.09;89.69727;94987.85;;;;
2022/02/18 03:14:16;;;;;;;12.7;2.95;;;;;;;7.09;89.69727;94987.85;;;;
2022/02/18 03:15:17;;;;;;;12.7;2.95;;;;;;;7.09;89.69727;94987.85;;;;
2022/02/18 03:16:17;;;;;;;12.95;3.15;;;;;;;7.2;89.43457;95022.44;;;;
2022/02/18 03:17:20;;;;;;;12.95;3.15;;;;;;;7.2;89.43457;95022.44;;;;
2022/02/18 03:18:22;;;;;;;12.95;3.15;;;;;;;7.2;89.43457;95022.44;;;;
2022/02/18 03:19:23;;;;;;;12.95;3.15;;;;;;;7.2;89.43457;95022.44;;;;
2022/02/18 03:20:23;;;;;;;12.95;3.15;;;;;;;7.2;89.43457;95022.44;;;;
2022/02/18 03:21:24;;;;;;;12.95;3.15;;;;;;;7.2;89.43457;95022.44;;;;
2022/02/18 03:22:25;;;;;;;12.95;3.15;;;;;;;7.2;89.43457;95022.44;;;;
2022/02/18 03:23:25;;;;;;;12.95;3.15;;;;;;;7.2;89.43457;95022.44;;;;
2022/02/18 03:24:26;;;;;;;12.95;3.15;;;;;;;7.2;89.43457;95022.44;;;;
2022/02/18 03:25:26;;;;;;;12.95;3.15;;;;;;;7.2;89.43457;95022.44;;;;
2022/02/18 03:26:27;;;;;;;12.95;3.05;;;;;;;7.31;89.36133;95047.74;;;;
2022/02/18 03:27:27;;;;;;;12.95;3.05;;;;;;;7.31;89.36133;95047.74;;;;
2022/02/18 03:28:28;;;;;;;12.95;3.05;;;;;;;7.31;89.36133;95047.74;;;;
2022/02/18 03:29:29;;;;;;;12.95;3.05;;;;;;;7.31;89.36133;95047.74;;;;
2022/02/18 03:30:29;;;;;;;12.95;3.05;;;;;;;7.31;89.36133;95047.74;;;;
2022/02/18 03:31:30;;;;;;;12.95;3.05;;;;;;;7.31;89.36133;95047.74;;;;
2022/02/18 03:32:30;;;;;;;12.95;3.05;;;;;;;7.31;89.36133;95047.74;;;;
2022/02/18 03:33:31;;;;;;;12.95;3.05;;;;;;;7.31;89.36133;95047.74;;;;
2022/02/18 03:34:31;;;;;;;12.95;3.05;;;;;;;7.31;89.36133;95047.74;;;;
2022/02/18 03:35:32;;;;;;;12.95;3.05;;;;;;;7.31;89.36133;95047.74;;;;
2022/02/18 03:36:33;;;;;;;12.95;3.05;;;;;;;7.31;89.36133;95047.74;;;;
2022/02/18 03:37:33;;;;;;;10.9;3.15;;;;;;;7.35;89.24219;95025.2;;;;
2022/02/18 03:38:34;;;;;;;10.9;3.15;;;;;;;7.35;89.24219;95025.2;;;;
2022/02/18 03:39:35;;;;;;;10.9;3.15;;;;;;;7.35;89.24219;95025.2;;;;
2022/02/18 03:40:35;;;;;;;10.9;3.15;;;;;;;7.35;89.24219;95025.2;;;;
2022/02/18 03:41:37;;;;;;;10.9;3.15;;;;;;;7.35;89.24219;95025.2;;;;
2022/02/18 03:42:37;;;;;;;10.9;3.15;;;;;;;7.35;89.24219;95025.2;;;;
2022/02/18 03:43:38;;;;;;;10.9;3.15;;;;;;;7.35;89.24219;95025.2;;;;
2022/02/18 03:44:38;;;;;;;10.9;3.15;;;;;;;7.35;89.24219;95025.2;;;;
2022/02/18 03:45:39;;;;;;;10.9;3.15;;;;;;;7.35;89.24219;95025.2;;;;
2022/02/18 03:46:39;;;;;;;10.9;3.15;;;;;;;7.35;89.24219;95025.2;;;;
2022/02/18 03:47:40;;;;;;;11.95;3.1;;;;;;;7.38;89.17578;95004.6;;;;
2022/02/18 03:48:40;;;;;;;11.95;3.1;;;;;;;7.38;89.17578;95004.6;;;;
2022/02/18 03:49:41;;;;;;;11.95;3.1;;;;;;;7.38;89.17578;95004.6;;;;
2022/02/18 03:50:41;;;;;;;11.95;3.1;;;;;;;7.38;89.17578;95004.6;;;;
2022/02/18 03:51:42;;;;;;;11.95;3.1;;;;;;;7.38;89.17578;95004.6;;;;
2022/02/18 03:52:42;;;;;;;11.95;3.1;;;;;;;7.38;89.17578;95004.6;;;;
2022/02/18 03:53:45;;;;;;;11.95;3.1;;;;;;;7.38;89.17578;95004.6;;;;
2022/02/18 03:54:46;;;;;;;11.95;3.1;;;;;;;7.38;89.17578;95004.6;;;;
2022/02/18 03:55:46;;;;;;;11.95;3.1;;;;;;;7.38;89.17578;95004.6;;;;
2022/02/18 03:56:47;;;;;;;11.95;3.1;;;;;;;7.38;89.17578;95004.6;;;;
2022/02/18 03:57:47;;;;;;;11.95;3.1;;;;;;;7.38;89.17578;95004.6;;;;
2022/02/18 03:58:48;;;;;;;11.95;3.1;;;;;;;7.38;89.17578;95004.6;;;;
2022/02/18 03:59:48;;;;;;;11.95;3.1;;;;;;;7.38;89.17578;95004.6;;;;
2022/02/18 04:00:49;;;;;;;11.95;3.1;;;;;;;7.38;89.17578;95004.6;;;;
2022/02/18 04:01:49;;;;;;;11.95;3.1;;;;;;;7.38;89.17578;95004.6;;;;
2022/02/18 04:02:50;;;;;;;11.95;3.1;;;;;;;7.38;89.17578;95004.6;;;;
2022/02/18 04:03:51;;;;;;;11.95;3.1;;;;;;;7.38;89.17578;95004.6;;;;
2022/02/18 04:04:53;;;;;;;11.95;3.1;;;;;;;7.38;89.17578;95004.6;;;;
2022/02/18 04:05:54;;;;;;;11.95;3.1;;;;;;;7.38;89.17578;95004.6;;;;
2022/02/18 04:06:54;;;;;;;11.95;3.1;;;;;;;7.38;89.17578;95004.6;;;;
2022/02/18 04:07:55;;;;;;;11.95;3.1;;;;;;;7.38;89.17578;95004.6;;;;
2022/02/18 04:08:55;;;;;;;11.7;3.15;;;;;;;7.08;89.78809;95032.37;;;;
2022/02/18 04:09:56;;;;;;;11.7;3.15;;;;;;;7.08;89.78809;95032.37;;;;
2022/02/18 04:10:56;;;;;;;11.7;3.15;;;;;;;7.08;89.78809;95032.37;;;;
2022/02/18 04:11:57;;;;;;;11.7;3.15;;;;;;;7.08;89.78809;95032.37;;;;
2022/02/18 04:12:57;;;;;;;11.7;3.15;;;;;;;7.08;89.78809;95032.37;;;;
2022/02/18 04:13:58;;;;;;;11.7;3.15;;;;;;;7.08;89.78809;95032.37;;;;
2022/02/18 04:14:58;;;;;;;11.7;3.15;;;;;;;7.08;89.78809;95032.37;;;;
2022/02/18 04:15:59;;;;;;;11.7;3.15;;;;;;;7.08;89.78809;95032.37;;;;
2022/02/18 04:17:00;;;;;;;11.7;3.15;;;;;;;7.08;89.78809;95032.37;;;;
2022/02/18 04:18:00;;;;;;;11.7;3.15;;;;;;;7.08;89.78809;95032.37;;;;
2022/02/18 04:19:01;;;;;;;11.7;3.15;;;;;;;7.08;89.78809;95032.37;;;;
2022/02/18 04:20:01;;;;;;;11.05;2.9;;;;;;;7.12;90.01953;95002.58;;;;
2022/02/18 04:21:02;;;;;;;11.05;2.9;;;;;;;7.12;90.01953;95002.58;;;;
2022/02/18 04:22:03;;;;;;;11.05;2.9;;;;;;;7.12;90.01953;95002.58;;;;
2022/02/18 04:23:04;;;;;;;11.05;2.9;;;;;;;7.12;90.01953;95002.58;;;;
2022/02/18 04:24:04;;;;;;;11.05;2.9;;;;;;;7.12;90.01953;95002.58;;;;
2022/02/18 04:25:05;;;;;;;11.05;2.9;;;;;;;7.12;90.01953;95002.58;;;;
2022/02/18 04:26:07;;;;;;;11.05;2.9;;;;;;;7.12;90.01953;95002.58;;;;
2022/02/18 04:27:07;;;;;;;11.05;2.9;;;;;;;7.12;90.01953;95002.58;;;;
2022/02/18 04:28:08;;;;;;;11.05;2.9;;;;;;;7.12;90.01953;95002.58;;;;
2022/02/18 04:29:09;;;;;;;11.05;2.9;;;;;;;7.12;90.01953;95002.58;;;;
2022/02/18 04:30:09;;;;;;;11.05;2.9;;;;;;;7.12;90.01953;95002.58;;;;
2022/02/18 04:31:11;;;;;;;11.8;2.9;;;;;;;7.13;89.96875;95000.73;;;;
2022/02/18 04:32:12;;;;;;;11.8;2.9;;;;;;;7.13;89.96875;95000.73;;;;
2022/02/18 04:33:15;;;;;;;11.8;2.9;;;;;;;7.13;89.96875;95000.73;;;;
2022/02/18 04:34:15;;;;;;;11.8;2.9;;;;;;;7.13;89.96875;95000.73;;;;
2022/02/18 04:35:16;;;;;;;11.8;2.9;;;;;;;7.13;89.96875;95000.73;;;;
2022/02/18 04:36:17;;;;;;;11.8;2.9;;;;;;;7.13;89.96875;95000.73;;;;
2022/02/18 04:37:18;;;;;;;11.8;2.9;;;;;;;7.13;89.96875;95000.73;;;;
2022/02/18 04:38:18;;;;;;;11.8;2.9;;;;;;;7.13;89.96875;95000.73;;;;
2022/02/18 04:39:18;;;;;;;11.8;2.9;;;;;;;7.13;89.96875;95000.73;;;;
2022/02/18 04:40:19;;;;;;;11.8;2.9;;;;;;;7.13;89.96875;95000.73;;;;
2022/02/18 04:41:20;;;;;;;10.8;2.8;;;;;;;7.21;89.97461;94997.77;;;;
2022/02/18 04:42:20;;;;;;;10.8;2.8;;;;;;;7.21;89.97461;94997.77;;;;
2022/02/18 04:43:21;;;;;;;10.8;2.8;;;;;;;7.21;89.97461;94997.77;;;;
2022/02/18 04:44:21;;;;;;;10.8;2.8;;;;;;;7.21;89.97461;94997.77;;;;
2022/02/18 04:45:22;;;;;;;10.8;2.8;;;;;;;7.21;89.97461;94997.77;;;;
2022/02/18 04:46:22;;;;;;;10.8;2.8;;;;;;;7.21;89.97461;94997.77;;;;
2022/02/18 04:47:23;;;;;;;10.8;2.8;;;;;;;7.21;89.97461;94997.77;;;;
2022/02/18 04:48:23;;;;;;;10.8;2.8;;;;;;;7.21;89.97461;94997.77;;;;
2022/02/18 04:49:24;;;;;;;10.8;2.8;;;;;;;7.21;89.97461;94997.77;;;;
2022/02/18 04:50:24;;;;;;;10.8;2.8;;;;;;;7.21;89.97461;94997.77;;;;
2022/02/18 04:51:25;;;;;;;10.8;2.8;;;;;;;7.21;89.97461;94997.77;;;;
2022/02/18 04:52:27;;;;;;;11.9;3.05;;;;;;;7.3;89.65527;94979.39;;;;
2022/02/18 04:53:27;;;;;;;11.9;3.05;;;;;;;7.3;89.65527;94979.39;;;;
2022/02/18 04:54:28;;;;;;;11.9;3.05;;;;;;;7.3;89.65527;94979.39;;;;
2022/02/18 04:55:28;;;;;;;11.9;3.05;;;;;;;7.3;89.65527;94979.39;;;;
2022/02/18 04:56:29;;;;;;;11.9;3.05;;;;;;;7.3;89.65527;94979.39;;;;
2022/02/18 04:57:29;;;;;;;11.9;3.05;;;;;;;7.3;89.65527;94979.39;;;;
2022/02/18 04:58:30;;;;;;;11.9;3.05;;;;;;;7.3;89.65527;94979.39;;;;
2022/02/18 04:59:30;;;;;;;11.9;3.05;;;;;;;7.3;89.65527;94979.39;;;;
2022/02/18 05:00:31;;;;;;;11.9;3.05;;;;;;;7.3;89.65527;94979.39;;;;
2022/02/18 05:01:32;;;;;;;11.9;3.05;;;;;;;7.3;89.65527;94979.39;;;;
2022/02/18 05:02:32;;;;;;;12.1;3.35;;;;;;;7.36;89.36035;94974.04;;;;
2022/02/18 05:03:33;;;;;;;12.1;3.35;;;;;;;7.36;89.36035;94974.04;;;;
2022/02/18 05:04:33;;;;;;;12.1;3.35;;;;;;;7.36;89.36035;94974.04;;;;
2022/02/18 05:05:34;;;;;;;12.1;3.35;;;;;;;7.36;89.36035;94974.04;;;;
2022/02/18 05:06:34;;;;;;;12.1;3.35;;;;;;;7.36;89.36035;94974.04;;;;
2022/02/18 05:07:35;;;;;;;12.1;3.35;;;;;;;7.36;89.36035;94974.04;;;;
2022/02/18 05:08:35;;;;;;;12.1;3.35;;;;;;;7.36;89.36035;94974.04;;;;
2022/02/18 05:09:36;;;;;;;12.1;3.35;;;;;;;7.36;89.36035;94974.04;;;;
2022/02/18 05:10:37;;;;;;;12.1;3.35;;;;;;;7.36;89.36035;94974.04;;;;
2022/02/18 05:11:38;;;;;;;12.1;3.35;;;;;;;7.36;89.36035;94974.04;;;;
2022/02/18 05:12:38;;;;;;;12.1;3.35;;;;;;;7.36;89.36035;94974.04;;;;
2022/02/18 05:13:39;;;;;;;13.2;3.15;;;;;;;7.21;89.4248;94966.89;;;;
2022/02/18 05:14:40;;;;;;;13.2;3.15;;;;;;;7.21;89.4248;94966.89;;;;
2022/02/18 05:15:40;;;;;;;13.2;3.15;;;;;;;7.21;89.4248;94966.89;;;;
2022/02/18 05:16:41;;;;;;;13.2;3.15;;;;;;;7.21;89.4248;94966.89;;;;
2022/02/18 05:17:46;;;;;;;13.2;3.15;;;;;;;7.21;89.4248;94966.89;;;;
2022/02/18 05:18:47;;;;;;;13.2;3.15;;;;;;;7.21;89.4248;94966.89;;;;
2022/02/18 05:19:48;;;;;;;13.2;3.15;;;;;;;7.21;89.4248;94966.89;;;;
2022/02/18 05:20:48;;;;;;;13.2;3.15;;;;;;;7.21;89.4248;94966.89;;;;
2022/02/18 05:21:49;;;;;;;13.2;3.15;;;;;;;7.21;89.4248;94966.89;;;;
2022/02/18 05:22:49;;;;;;;13.2;3.15;;;;;;;7.21;89.4248;94966.89;;;;
2022/02/18 05:23:50;;;;;;;12.4;3.1;;;;;;;7.06;89.54297;94947.12;;;;
2022/02/18 05:24:50;;;;;;;12.4;3.1;;;;;;;7.06;89.54297;94947.12;;;;
2022/02/18 05:25:51;;;;;;;12.4;3.1;;;;;;;7.06;89.54297;94947.12;;;;
2022/02/18 05:26:51;;;;;;;12.4;3.1;;;;;;;7.06;89.54297;94947.12;;;;
2022/02/18 05:27:52;;;;;;;12.4;3.1;;;;;;;7.06;89.54297;94947.12;;;;
2022/02/18 05:28:53;;;;;;;12.4;3.1;;;;;;;7.06;89.54297;94947.12;;;;
2022/02/18 05:29:54;;;;;;;12.4;3.1;;;;;;;7.06;89.54297;94947.12;;;;
2022/02/18 05:30:54;;;;;;;12.4;3.1;;;;;;;7.06;89.54297;94947.12;;;;
2022/02/18 05:31:55;;;;;;;12.4;3.1;;;;;;;7.06;89.54297;94947.12;;;;
2022/02/18 05:32:55;;;;;;;12.4;3.1;;;;;;;7.06;89.54297;94947.12;;;;
2022/02/18 05:33:56;;;;;;;12.4;3.1;;;;;;;7.06;89.54297;94947.12;;;;
2022/02/18 05:34:56;;;;;;;11.8;3.2;;;;;;;6.72;90.0625;94947.25;;;;
2022/02/18 05:35:57;;;;;;;11.8;3.2;;;;;;;6.72;90.0625;94947.25;;;;
2022/02/18 05:36:57;;;;;;;11.8;3.2;;;;;;;6.72;90.0625;94947.25;;;;
2022/02/18 05:37:58;;;;;;;11.8;3.2;;;;;;;6.72;90.0625;94947.25;;;;
2022/02/18 05:38:59;;;;;;;11.8;3.2;;;;;;;6.72;90.0625;94947.25;;;;
2022/02/18 05:39:59;;;;;;;11.8;3.2;;;;;;;6.72;90.0625;94947.25;;;;
2022/02/18 05:41:00;;;;;;;11.8;3.2;;;;;;;6.72;90.0625;94947.25;;;;
2022/02/18 05:42:00;;;;;;;11.8;3.2;;;;;;;6.72;90.0625;94947.25;;;;
2022/02/18 05:43:01;;;;;;;11.8;3.2;;;;;;;6.72;90.0625;94947.25;;;;
2022/02/18 05:44:01;;;;;;;11.8;3.2;;;;;;;6.72;90.0625;94947.25;;;;
2022/02/18 05:45:02;;;;;;;11.8;3.2;;;;;;;6.72;90.0625;94947.25;;;;
2022/02/18 05:46:04;;;;;;;15.85;2.85;;;;;;;6.44;91.12402;94945;;;;
2022/02/18 05:47:05;;;;;;;15.85;2.85;;;;;;;6.44;91.12402;94945;;;;
2022/02/18 05:48:05;;;;;;;15.85;2.85;;;;;;;6.44;91.12402;94945;;;;
2022/02/18 05:49:06;;;;;;;15.85;2.85;;;;;;;6.44;91.12402;94945;;;;
2022/02/18 05:50:08;;;;;;;15.85;2.85;;;;;;;6.44;91.12402;94945;;;;
2022/02/18 05:51:10;;;;;;;15.85;2.85;;;;;;;6.44;91.12402;94945;;;;
2022/02/18 05:52:11;;;;;;;15.85;2.85;;;;;;;6.44;91.12402;94945;;;;